F/v.manga-reva — FGRC — position and weather

sailwx.info

Track history (hours):
 
Tides and Currents Weather Stations Pressure Air Temp Water Temp Dewpoint Dewpoint Depression Visibility Wind Speed Wind Dir Waves Ship Positions

F/v.manga-reva

Last reported at 2018-Feb-19 16:22 UTC. Time now 2018-Feb-20 11:35 UTC.
Position N 47°47' W 004°17'.

Length 16 m; draft 3.2 m.

Type: Fishing. MMSI: 228332000.

Date/timePositionNaut miles runAvg speedWind from/ knotsBaromVisibWave heightAir tempDewpointWater temp
2018-Feb-19 16:22N 47°47' W 004°17'3 9.4
2018-Feb-19 16:00N 47°44' W 004°19'5 9.1
2018-Feb-19 15:29N 47°40' W 004°21'5 4.7
2018-Feb-19 14:28N 47°35' W 004°22'10 2.8
2018-Feb-19 10:46N 47°38' W 004°37'1 3.0
2018-Feb-19 10:22N 47°38' W 004°39'1 3.3
2018-Feb-19 09:56N 47°38' W 004°41'1 1.8
2018-Feb-19 09:30N 47°39' W 004°40'5 2.8
2018-Feb-19 07:45N 47°38' W 004°33'2 2.8
2018-Feb-19 07:05N 47°38' W 004°30'1 3.0
2018-Feb-19 06:51N 47°39' W 004°29'3 5.2
2018-Feb-19 06:12N 47°41' W 004°26'2 8.2
2018-Feb-19 06:00N 47°42' W 004°24'4 8.0
2018-Feb-19 05:31N 47°45' W 004°20'4 0.4
2018-Feb-18 19:53N 47°48' W 004°17'1 1.1
2018-Feb-18 19:14N 47°47' W 004°17'2 5.4
2018-Feb-18 18:56N 47°46' W 004°19'3 6.5
2018-Feb-18 18:29N 47°44' W 004°21'16 3.3
2018-Feb-18 13:38N 47°40' W 004°45'3 2.5
2018-Feb-18 12:32N 47°41' W 004°48'1 2.9
2018-Feb-18 12:11N 47°42' W 004°50'1 2.9
2018-Feb-18 11:46N 47°42' W 004°52'2 3.0
2018-Feb-18 11:12N 47°42' W 004°54'1 3.1
2018-Feb-18 10:58N 47°42' W 004°55'1 2.8
2018-Feb-18 10:27N 47°41' W 004°54'1 0.9
2018-Feb-18 09:01N 47°42' W 004°54'0 3.4
2018-Feb-18 08:56N 47°42' W 004°54'4 2.6
2018-Feb-18 07:15N 47°42' W 004°48'2 2.9
2018-Feb-18 06:41N 47°42' W 004°45'1 3.5
2018-Feb-18 06:22N 47°42' W 004°44'3 8.6
2018-Feb-18 06:00N 47°43' W 004°39'4 8.7
2018-Feb-18 05:30N 47°44' W 004°33'4 8.6
2018-Feb-18 05:00N 47°45' W 004°27'4 8.6
2018-Feb-18 04:31N 47°46' W 004°21'3 0.1
2018-Feb-16 15:26N 47°48' W 004°17'1 0.3
2018-Feb-16 13:25N 47°47' W 004°17'4 8.8
2018-Feb-16 12:59N 47°46' W 004°23'4 8.8
2018-Feb-16 12:30N 47°45' W 004°29'4 8.8
2018-Feb-16 12:00N 47°44' W 004°35'3 5.2
2018-Feb-16 11:30N 47°44' W 004°39'2 2.8
2018-Feb-16 10:58N 47°43' W 004°41'1 2.8
2018-Feb-16 10:30N 47°43' W 004°43'2 3.0
2018-Feb-16 09:58N 47°43' W 004°45'1 1.6
2018-Feb-16 09:30N 47°43' W 004°46'1 2.6
2018-Feb-16 08:59N 47°43' W 004°48'1 2.6
2018-Feb-16 08:29N 47°44' W 004°50'2 3.0
2018-Feb-16 07:58N 47°43' W 004°52'1 2.0
2018-Feb-16 07:29N 47°42' W 004°51'2 3.0
2018-Feb-16 06:58N 47°42' W 004°49'1 2.5
2018-Feb-16 06:23N 47°40' W 004°49'1 2.4
2018-Feb-16 05:56N 47°40' W 004°51'1 3.1
2018-Feb-16 05:28N 47°41' W 004°53'1 3.1
2018-Feb-16 05:00N 47°41' W 004°55'1 2.6
2018-Feb-16 04:30N 47°42' W 004°55'1 1.8
2018-Feb-16 04:00N 47°43' W 004°56'1 3.0
2018-Feb-16 03:30N 47°43' W 004°58'2 2.8
2018-Feb-16 02:57N 47°44' W 005°00'1 2.9
2018-Feb-16 02:29N 47°45' W 005°02'1 3.0
2018-Feb-16 02:00N 47°44' W 005°04'2 2.7
2018-Feb-16 01:24N 47°44' W 005°06'1 2.9
2018-Feb-16 01:00N 47°44' W 005°08'1 2.8
2018-Feb-16 00:29N 47°44' W 005°10'1 3.1
2018-Feb-16 00:00N 47°43' W 005°11'3 2.9
2018-Feb-15 23:08N 47°40' W 005°11'0 3.0
2018-Feb-15 23:00N 47°40' W 005°11'2 3.1
2018-Feb-15 22:29N 47°38' W 005°10'2 3.0
2018-Feb-15 21:58N 47°37' W 005°09'1 2.3
2018-Feb-15 21:19N 47°35' W 005°10'2 1.9
2018-Feb-15 20:07N 47°35' W 005°06'2 3.2
2018-Feb-15 19:36N 47°36' W 005°04'3 3.1
2018-Feb-15 18:42N 47°37' W 004°60'2 1.9
2018-Feb-15 17:30N 47°39' W 004°58'2 3.0
2018-Feb-15 16:59N 47°39' W 005°01'2 3.1
2018-Feb-15 16:30N 47°40' W 005°03'2 3.1
2018-Feb-15 15:55N 47°41' W 005°05'3 3.0
2018-Feb-15 15:03N 47°43' W 005°08'1 2.9
2018-Feb-15 14:40N 47°44' W 005°09'1 2.8
2018-Feb-15 14:27N 47°44' W 005°08'2 3.5
2018-Feb-15 13:59N 47°44' W 005°05'1 2.3
2018-Feb-15 13:29N 47°44' W 005°04'1 2.8
2018-Feb-15 12:59N 47°45' W 005°02'1 2.9
2018-Feb-15 12:30N 47°44' W 005°00'2 2.9
2018-Feb-15 11:58N 47°43' W 004°58'2 3.1
2018-Feb-15 11:28N 47°43' W 004°56'1 2.9
2018-Feb-15 10:59N 47°43' W 004°54'2 2.9
2018-Feb-15 10:28N 47°45' W 004°53'1 2.4
2018-Feb-15 09:54N 47°45' W 004°51'1 3.0
2018-Feb-15 09:30N 47°44' W 004°50'2 3.1
2018-Feb-15 08:59N 47°43' W 004°48'2 3.0
2018-Feb-15 08:25N 47°43' W 004°46'2 3.1
2018-Feb-15 07:39N 47°43' W 004°42'1 3.1
2018-Feb-15 07:20N 47°44' W 004°41'1 3.0
2018-Feb-15 06:58N 47°44' W 004°40'3 4.6
2018-Feb-15 06:24N 47°44' W 004°36'3 7.3
2018-Feb-15 05:58N 47°45' W 004°31'4 7.3
2018-Feb-15 05:24N 47°45' W 004°25'3 7.1
2018-Feb-15 05:00N 47°46' W 004°21'3 0.1
2018-Feb-13 15:07N 47°48' W 004°17'1 0.0
2018-Feb-12 20:35N 47°47' W 004°18'1 9.4
2018-Feb-12 20:27N 47°46' W 004°17'24 6.9
2018-Feb-12 16:57N 47°30' W 003°51'2 3.4
2018-Feb-12 16:30N 47°30' W 003°49'1 2.6
2018-Feb-12 16:00N 47°31' W 003°48'2 3.2
2018-Feb-12 15:30N 47°32' W 003°46'2 3.3
2018-Feb-12 14:59N 47°34' W 003°45'1 2.3
2018-Feb-12 14:31N 47°34' W 003°44'1 1.9
2018-Feb-12 14:01N 47°33' W 003°44'1 1.7
2018-Feb-12 13:31N 47°33' W 003°45'2 3.3
2018-Feb-12 13:01N 47°32' W 003°47'2 3.2
2018-Feb-12 12:30N 47°30' W 003°48'2 3.2
2018-Feb-12 11:58N 47°29' W 003°48'2 3.2
2018-Feb-12 11:28N 47°28' W 003°50'1 1.2
2018-Feb-12 10:59N 47°28' W 003°49'1 2.4
2018-Feb-12 10:30N 47°29' W 003°48'2 3.2
2018-Feb-12 09:59N 47°30' W 003°48'1 3.1
2018-Feb-12 09:31N 47°32' W 003°47'2 3.1
2018-Feb-12 09:01N 47°33' W 003°45'1 2.0
2018-Feb-12 08:31N 47°33' W 003°44'1 1.7
2018-Feb-12 08:01N 47°34' W 003°44'2 3.1
2018-Feb-12 07:31N 47°34' W 003°46'2 3.6
2018-Feb-12 07:00N 47°35' W 003°49'17 8.8
2018-Feb-12 05:04N 47°42' W 004°11'1 9.1
2018-Feb-12 04:55N 47°43' W 004°13'4 9.2
2018-Feb-12 04:30N 47°45' W 004°18'  
Track history (hours):
 
Tides and Currents Weather Stations Pressure Air Temp Water Temp Dewpoint Dewpoint Depression Visibility Wind Speed Wind Dir Waves Ship Positions

F/v.manga-reva

Last reported at 2018-Feb-19 16:22 UTC. Time now 2018-Feb-20 11:35 UTC.
Position N 47°47' W 004°17'.

Length 16 m; draft 3.2 m.

Type: Fishing. MMSI: 228332000.

Date/timePositionNaut miles runAvg speedWind from/ knotsBaromVisibWave heightAir tempDewpointWater temp
2018-Feb-19 16:22N 47°47' W 004°17'3 9.4
2018-Feb-19 16:00N 47°44' W 004°19'5 9.1
2018-Feb-19 15:29N 47°40' W 004°21'5 4.7
2018-Feb-19 14:28N 47°35' W 004°22'10 2.8
2018-Feb-19 10:46N 47°38' W 004°37'1 3.0
2018-Feb-19 10:22N 47°38' W 004°39'1 3.3
2018-Feb-19 09:56N 47°38' W 004°41'1 1.8
2018-Feb-19 09:30N 47°39' W 004°40'5 2.8
2018-Feb-19 07:45N 47°38' W 004°33'2 2.8
2018-Feb-19 07:05N 47°38' W 004°30'1 3.0
2018-Feb-19 06:51N 47°39' W 004°29'3 5.2
2018-Feb-19 06:12N 47°41' W 004°26'2 8.2
2018-Feb-19 06:00N 47°42' W 004°24'4 8.0
2018-Feb-19 05:31N 47°45' W 004°20'4 0.4
2018-Feb-18 19:53N 47°48' W 004°17'1 1.1
2018-Feb-18 19:14N 47°47' W 004°17'2 5.4
2018-Feb-18 18:56N 47°46' W 004°19'3 6.5
2018-Feb-18 18:29N 47°44' W 004°21'16 3.3
2018-Feb-18 13:38N 47°40' W 004°45'3 2.5
2018-Feb-18 12:32N 47°41' W 004°48'1 2.9
2018-Feb-18 12:11N 47°42' W 004°50'1 2.9
2018-Feb-18 11:46N 47°42' W 004°52'2 3.0
2018-Feb-18 11:12N 47°42' W 004°54'1 3.1
2018-Feb-18 10:58N 47°42' W 004°55'1 2.8
2018-Feb-18 10:27N 47°41' W 004°54'1 0.9
2018-Feb-18 09:01N 47°42' W 004°54'0 3.4
2018-Feb-18 08:56N 47°42' W 004°54'4 2.6
2018-Feb-18 07:15N 47°42' W 004°48'2 2.9
2018-Feb-18 06:41N 47°42' W 004°45'1 3.5
2018-Feb-18 06:22N 47°42' W 004°44'3 8.6
2018-Feb-18 06:00N 47°43' W 004°39'4 8.7
2018-Feb-18 05:30N 47°44' W 004°33'4 8.6
2018-Feb-18 05:00N 47°45' W 004°27'4 8.6
2018-Feb-18 04:31N 47°46' W 004°21'3 0.1
2018-Feb-16 15:26N 47°48' W 004°17'1 0.3
2018-Feb-16 13:25N 47°47' W 004°17'4 8.8
2018-Feb-16 12:59N 47°46' W 004°23'4 8.8
2018-Feb-16 12:30N 47°45' W 004°29'4 8.8
2018-Feb-16 12:00N 47°44' W 004°35'3 5.2
2018-Feb-16 11:30N 47°44' W 004°39'2 2.8
2018-Feb-16 10:58N 47°43' W 004°41'1 2.8
2018-Feb-16 10:30N 47°43' W 004°43'2 3.0
2018-Feb-16 09:58N 47°43' W 004°45'1 1.6
2018-Feb-16 09:30N 47°43' W 004°46'1 2.6
2018-Feb-16 08:59N 47°43' W 004°48'1 2.6
2018-Feb-16 08:29N 47°44' W 004°50'2 3.0
2018-Feb-16 07:58N 47°43' W 004°52'1 2.0
2018-Feb-16 07:29N 47°42' W 004°51'2 3.0
2018-Feb-16 06:58N 47°42' W 004°49'1 2.5
2018-Feb-16 06:23N 47°40' W 004°49'1 2.4
2018-Feb-16 05:56N 47°40' W 004°51'1 3.1
2018-Feb-16 05:28N 47°41' W 004°53'1 3.1
2018-Feb-16 05:00N 47°41' W 004°55'1 2.6
2018-Feb-16 04:30N 47°42' W 004°55'1 1.8
2018-Feb-16 04:00N 47°43' W 004°56'1 3.0
2018-Feb-16 03:30N 47°43' W 004°58'2 2.8
2018-Feb-16 02:57N 47°44' W 005°00'1 2.9
2018-Feb-16 02:29N 47°45' W 005°02'1 3.0
2018-Feb-16 02:00N 47°44' W 005°04'2 2.7
2018-Feb-16 01:24N 47°44' W 005°06'1 2.9
2018-Feb-16 01:00N 47°44' W 005°08'1 2.8
2018-Feb-16 00:29N 47°44' W 005°10'1 3.1
2018-Feb-16 00:00N 47°43' W 005°11'3 2.9
2018-Feb-15 23:08N 47°40' W 005°11'0 3.0
2018-Feb-15 23:00N 47°40' W 005°11'2 3.1
2018-Feb-15 22:29N 47°38' W 005°10'2 3.0
2018-Feb-15 21:58N 47°37' W 005°09'1 2.3
2018-Feb-15 21:19N 47°35' W 005°10'2 1.9
2018-Feb-15 20:07N 47°35' W 005°06'2 3.2
2018-Feb-15 19:36N 47°36' W 005°04'3 3.1
2018-Feb-15 18:42N 47°37' W 004°60'2 1.9
2018-Feb-15 17:30N 47°39' W 004°58'2 3.0
2018-Feb-15 16:59N 47°39' W 005°01'2 3.1
2018-Feb-15 16:30N 47°40' W 005°03'2 3.1
2018-Feb-15 15:55N 47°41' W 005°05'3 3.0
2018-Feb-15 15:03N 47°43' W 005°08'1 2.9
2018-Feb-15 14:40N 47°44' W 005°09'1 2.8
2018-Feb-15 14:27N 47°44' W 005°08'2 3.5
2018-Feb-15 13:59N 47°44' W 005°05'1 2.3
2018-Feb-15 13:29N 47°44' W 005°04'1 2.8
2018-Feb-15 12:59N 47°45' W 005°02'1 2.9
2018-Feb-15 12:30N 47°44' W 005°00'2 2.9
2018-Feb-15 11:58N 47°43' W 004°58'2 3.1
2018-Feb-15 11:28N 47°43' W 004°56'1 2.9
2018-Feb-15 10:59N 47°43' W 004°54'2 2.9
2018-Feb-15 10:28N 47°45' W 004°53'1 2.4
2018-Feb-15 09:54N 47°45' W 004°51'1 3.0
2018-Feb-15 09:30N 47°44' W 004°50'2 3.1
2018-Feb-15 08:59N 47°43' W 004°48'2 3.0
2018-Feb-15 08:25N 47°43' W 004°46'2 3.1
2018-Feb-15 07:39N 47°43' W 004°42'1 3.1
2018-Feb-15 07:20N 47°44' W 004°41'1 3.0
2018-Feb-15 06:58N 47°44' W 004°40'3 4.6
2018-Feb-15 06:24N 47°44' W 004°36'3 7.3
2018-Feb-15 05:58N 47°45' W 004°31'4 7.3
2018-Feb-15 05:24N 47°45' W 004°25'3 7.1
2018-Feb-15 05:00N 47°46' W 004°21'3 0.1
2018-Feb-13 15:07N 47°48' W 004°17'1 0.0
2018-Feb-12 20:35N 47°47' W 004°18'1 9.4
2018-Feb-12 20:27N 47°46' W 004°17'24 6.9
2018-Feb-12 16:57N 47°30' W 003°51'2 3.4
2018-Feb-12 16:30N 47°30' W 003°49'1 2.6
2018-Feb-12 16:00N 47°31' W 003°48'2 3.2
2018-Feb-12 15:30N 47°32' W 003°46'2 3.3
2018-Feb-12 14:59N 47°34' W 003°45'1 2.3
2018-Feb-12 14:31N 47°34' W 003°44'1 1.9
2018-Feb-12 14:01N 47°33' W 003°44'1 1.7
2018-Feb-12 13:31N 47°33' W 003°45'2 3.3
2018-Feb-12 13:01N 47°32' W 003°47'2 3.2
2018-Feb-12 12:30N 47°30' W 003°48'2 3.2
2018-Feb-12 11:58N 47°29' W 003°48'2 3.2
2018-Feb-12 11:28N 47°28' W 003°50'1 1.2
2018-Feb-12 10:59N 47°28' W 003°49'1 2.4
2018-Feb-12 10:30N 47°29' W 003°48'2 3.2
2018-Feb-12 09:59N 47°30' W 003°48'1 3.1
2018-Feb-12 09:31N 47°32' W 003°47'2 3.1
2018-Feb-12 09:01N 47°33' W 003°45'1 2.0
2018-Feb-12 08:31N 47°33' W 003°44'1 1.7
2018-Feb-12 08:01N 47°34' W 003°44'2 3.1
2018-Feb-12 07:31N 47°34' W 003°46'2 3.6
2018-Feb-12 07:00N 47°35' W 003°49'17 8.8
2018-Feb-12 05:04N 47°42' W 004°11'1 9.1
2018-Feb-12 04:55N 47°43' W 004°13'4 9.2
2018-Feb-12 04:30N 47°45' W 004°18'  

Dump ship's entire track history